sensor_id;sensor_type;location;lat;lon;timestamp;P1;durP1;ratioP1;P2;durP2;ratioP2
4290;SDS011;2159;50.906;7.152;2023-01-01T00:01:21;23.63;;;12.20;;
4290;SDS011;2159;50.906;7.152;2023-01-01T00:03:49;22.10;;;12.87;;
4290;SDS011;2159;50.906;7.152;2023-01-01T00:06:17;20.20;;;11.97;;
4290;SDS011;2159;50.906;7.152;2023-01-01T00:08:45;20.57;;;12.00;;
4290;SDS011;2159;50.906;7.152;2023-01-01T00:11:12;17.97;;;10.73;;
4290;SDS011;2159;50.906;7.152;2023-01-01T00:13:41;17.40;;;10.77;;
4290;SDS011;2159;50.906;7.152;2023-01-01T00:16:11;15.10;;;8.90;;
4290;SDS011;2159;50.906;7.152;2023-01-01T00:18:39;17.40;;;8.93;;
4290;SDS011;2159;50.906;7.152;2023-01-01T00:21:10;14.10;;;8.30;;
4290;SDS011;2159;50.906;7.152;2023-01-01T00:23:39;10.93;;;7.20;;
4290;SDS011;2159;50.906;7.152;2023-01-01T00:26:08;9.63;;;6.00;;
4290;SDS011;2159;50.906;7.152;2023-01-01T00:28:36;12.70;;;5.93;;
4290;SDS011;2159;50.906;7.152;2023-01-01T00:31:05;9.20;;;5.60;;
4290;SDS011;2159;50.906;7.152;2023-01-01T00:33:34;9.63;;;5.70;;
4290;SDS011;2159;50.906;7.152;2023-01-01T00:36:04;12.33;;;5.40;;
4290;SDS011;2159;50.906;7.152;2023-01-01T00:38:32;6.83;;;4.60;;
4290;SDS011;2159;50.906;7.152;2023-01-01T00:41:00;6.97;;;3.80;;
4290;SDS011;2159;50.906;7.152;2023-01-01T00:43:28;6.40;;;3.50;;
4290;SDS011;2159;50.906;7.152;2023-01-01T00:45:55;7.27;;;3.80;;
4290;SDS011;2159;50.906;7.152;2023-01-01T00:48:23;3.93;;;3.03;;
4290;SDS011;2159;50.906;7.152;2023-01-01T00:50:52;5.53;;;3.23;;
4290;SDS011;2159;50.906;7.152;2023-01-01T00:53:20;3.83;;;3.13;;
4290;SDS011;2159;50.906;7.152;2023-01-01T00:55:48;4.60;;;3.00;;
4290;SDS011;2159;50.906;7.152;2023-01-01T00:58:17;6.57;;;3.03;;
4290;SDS011;2159;50.906;7.152;2023-01-01T01:00:45;5.50;;;2.70;;
4290;SDS011;2159;50.906;7.152;2023-01-01T01:03:14;6.33;;;2.63;;
4290;SDS011;2159;50.906;7.152;2023-01-01T01:05:56;3.87;;;2.70;;
4290;SDS011;2159;50.906;7.152;2023-01-01T01:08:23;4.43;;;2.70;;
4290;SDS011;2159;50.906;7.152;2023-01-01T01:11:02;4.33;;;2.40;;
4290;SDS011;2159;50.906;7.152;2023-01-01T01:13:30;2.70;;;2.50;;
4290;SDS011;2159;50.906;7.152;2023-01-01T01:15:58;3.73;;;2.33;;
4290;SDS011;2159;50.906;7.152;2023-01-01T01:18:26;3.57;;;2.30;;
4290;SDS011;2159;50.906;7.152;2023-01-01T01:20:54;8.43;;;2.20;;
4290;SDS011;2159;50.906;7.152;2023-01-01T01:23:23;5.07;;;2.33;;
4290;SDS011;2159;50.906;7.152;2023-01-01T01:25:51;2.60;;;2.40;;
4290;SDS011;2159;50.906;7.152;2023-01-01T01:28:18;3.40;;;2.10;;
4290;SDS011;2159;50.906;7.152;2023-01-01T01:30:46;2.93;;;2.13;;
4290;SDS011;2159;50.906;7.152;2023-01-01T01:33:13;2.10;;;1.90;;
4290;SDS011;2159;50.906;7.152;2023-01-01T01:35:48;5.20;;;2.07;;
4290;SDS011;2159;50.906;7.152;2023-01-01T01:38:16;1.90;;;1.70;;
4290;SDS011;2159;50.906;7.152;2023-01-01T01:40:45;2.87;;;2.00;;
4290;SDS011;2159;50.906;7.152;2023-01-01T01:43:16;2.10;;;1.93;;
4290;SDS011;2159;50.906;7.152;2023-01-01T01:45:46;3.53;;;1.93;;
4290;SDS011;2159;50.906;7.152;2023-01-01T01:48:14;2.80;;;2.00;;
4290;SDS011;2159;50.906;7.152;2023-01-01T01:50:43;2.60;;;2.23;;
4290;SDS011;2159;50.906;7.152;2023-01-01T01:53:13;5.20;;;2.17;;
4290;SDS011;2159;50.906;7.152;2023-01-01T01:55:43;2.27;;;1.70;;
4290;SDS011;2159;50.906;7.152;2023-01-01T01:58:12;1.93;;;1.83;;
4290;SDS011;2159;50.906;7.152;2023-01-01T02:00:41;2.87;;;1.87;;
4290;SDS011;2159;50.906;7.152;2023-01-01T02:03:09;1.87;;;1.73;;
4290;SDS011;2159;50.906;7.152;2023-01-01T02:05:38;4.00;;;1.87;;
4290;SDS011;2159;50.906;7.152;2023-01-01T02:08:06;2.90;;;1.67;;
4290;SDS011;2159;50.906;7.152;2023-01-01T02:10:35;2.30;;;2.10;;
4290;SDS011;2159;50.906;7.152;2023-01-01T02:13:02;2.73;;;1.77;;
4290;SDS011;2159;50.906;7.152;2023-01-01T02:15:33;1.50;;;1.40;;
4290;SDS011;2159;50.906;7.152;2023-01-01T02:18:05;5.43;;;1.83;;
4290;SDS011;2159;50.906;7.152;2023-01-01T02:20:39;1.77;;;1.67;;
4290;SDS011;2159;50.906;7.152;2023-01-01T02:23:13;2.33;;;2.00;;
4290;SDS011;2159;50.906;7.152;2023-01-01T02:25:47;1.83;;;1.73;;
4290;SDS011;2159;50.906;7.152;2023-01-01T02:28:18;2.27;;;1.70;;
4290;SDS011;2159;50.906;7.152;2023-01-01T02:30:49;2.83;;;1.77;;
4290;SDS011;2159;50.906;7.152;2023-01-01T02:33:19;1.77;;;1.67;;
4290;SDS011;2159;50.906;7.152;2023-01-01T02:35:49;2.10;;;1.77;;
4290;SDS011;2159;50.906;7.152;2023-01-01T02:38:20;2.50;;;1.80;;
4290;SDS011;2159;50.906;7.152;2023-01-01T02:40:48;4.37;;;1.93;;
4290;SDS011;2159;50.906;7.152;2023-01-01T02:43:17;2.67;;;1.77;;
4290;SDS011;2159;50.906;7.152;2023-01-01T02:45:51;5.00;;;2.10;;
4290;SDS011;2159;50.906;7.152;2023-01-01T02:48:35;5.70;;;1.80;;
4290;SDS011;2159;50.906;7.152;2023-01-01T02:51:03;5.47;;;1.60;;
4290;SDS011;2159;50.906;7.152;2023-01-01T02:53:35;3.33;;;1.80;;
4290;SDS011;2159;50.906;7.152;2023-01-01T02:56:04;5.17;;;1.60;;
4290;SDS011;2159;50.906;7.152;2023-01-01T02:58:34;1.90;;;1.80;;
4290;SDS011;2159;50.906;7.152;2023-01-01T03:01:25;4.03;;;1.63;;
4290;SDS011;2159;50.906;7.152;2023-01-01T03:03:59;2.50;;;1.80;;
4290;SDS011;2159;50.906;7.152;2023-01-01T03:06:30;3.17;;;1.40;;
4290;SDS011;2159;50.906;7.152;2023-01-01T03:09:03;2.43;;;1.73;;
4290;SDS011;2159;50.906;7.152;2023-01-01T03:11:34;3.00;;;1.50;;
4290;SDS011;2159;50.906;7.152;2023-01-01T03:14:05;1.40;;;1.30;;
4290;SDS011;2159;50.906;7.152;2023-01-01T03:16:37;2.63;;;1.30;;
4290;SDS011;2159;50.906;7.152;2023-01-01T03:19:07;4.27;;;1.30;;
4290;SDS011;2159;50.906;7.152;2023-01-01T03:21:38;4.63;;;2.00;;
4290;SDS011;2159;50.906;7.152;2023-01-01T03:24:07;3.03;;;1.60;;
4290;SDS011;2159;50.906;7.152;2023-01-01T03:26:35;3.47;;;1.67;;
4290;SDS011;2159;50.906;7.152;2023-01-01T03:29:03;1.50;;;1.40;;
4290;SDS011;2159;50.906;7.152;2023-01-01T03:31:31;6.83;;;1.53;;
4290;SDS011;2159;50.906;7.152;2023-01-01T03:34:01;2.83;;;1.60;;
4290;SDS011;2159;50.906;7.152;2023-01-01T03:36:31;1.73;;;1.60;;
4290;SDS011;2159;50.906;7.152;2023-01-01T03:39:02;1.87;;;1.63;;
4290;SDS011;2159;50.906;7.152;2023-01-01T03:41:31;2.80;;;1.70;;
4290;SDS011;2159;50.906;7.152;2023-01-01T03:44:02;3.80;;;1.90;;
4290;SDS011;2159;50.906;7.152;2023-01-01T03:46:32;1.97;;;1.70;;
4290;SDS011;2159;50.906;7.152;2023-01-01T03:49:00;2.30;;;1.53;;
4290;SDS011;2159;50.906;7.152;2023-01-01T03:51:34;7.13;;;1.97;;
4290;SDS011;2159;50.906;7.152;2023-01-01T03:54:06;4.00;;;1.83;;
4290;SDS011;2159;50.906;7.152;2023-01-01T03:56:36;4.70;;;1.83;;
4290;SDS011;2159;50.906;7.152;2023-01-01T03:59:06;2.27;;;1.50;;
4290;SDS011;2159;50.906;7.152;2023-01-01T04:01:36;4.17;;;1.60;;
4290;SDS011;2159;50.906;7.152;2023-01-01T04:04:06;3.57;;;1.60;;
4290;SDS011;2159;50.906;7.152;2023-01-01T04:06:35;4.43;;;1.67;;
4290;SDS011;2159;50.906;7.152;2023-01-01T04:09:02;4.87;;;1.67;;
4290;SDS011;2159;50.906;7.152;2023-01-01T04:11:31;2.23;;;1.60;;
4290;SDS011;2159;50.906;7.152;2023-01-01T04:14:25;2.63;;;1.67;;
4290;SDS011;2159;50.906;7.152;2023-01-01T04:16:52;2.40;;;1.80;;
4290;SDS011;2159;50.906;7.152;2023-01-01T04:19:21;1.80;;;1.60;;
4290;SDS011;2159;50.906;7.152;2023-01-01T04:21:50;3.23;;;1.70;;
4290;SDS011;2159;50.906;7.152;2023-01-01T04:24:18;2.93;;;1.60;;
4290;SDS011;2159;50.906;7.152;2023-01-01T04:26:46;5.20;;;1.70;;
4290;SDS011;2159;50.906;7.152;2023-01-01T04:29:13;1.77;;;1.60;;
4290;SDS011;2159;50.906;7.152;2023-01-01T04:31:41;8.13;;;1.60;;
4290;SDS011;2159;50.906;7.152;2023-01-01T04:34:08;1.67;;;1.40;;
4290;SDS011;2159;50.906;7.152;2023-01-01T04:36:36;2.50;;;1.50;;
4290;SDS011;2159;50.906;7.152;2023-01-01T04:39:05;2.27;;;1.60;;
4290;SDS011;2159;50.906;7.152;2023-01-01T04:41:33;4.30;;;1.80;;
4290;SDS011;2159;50.906;7.152;2023-01-01T04:44:00;1.80;;;1.50;;
4290;SDS011;2159;50.906;7.152;2023-01-01T04:46:28;2.40;;;1.80;;
4290;SDS011;2159;50.906;7.152;2023-01-01T04:48:55;2.60;;;1.80;;
4290;SDS011;2159;50.906;7.152;2023-01-01T04:51:23;4.30;;;1.57;;
4290;SDS011;2159;50.906;7.152;2023-01-01T04:53:50;3.07;;;1.73;;
4290;SDS011;2159;50.906;7.152;2023-01-01T04:56:20;4.17;;;1.60;;
4290;SDS011;2159;50.906;7.152;2023-01-01T04:58:48;1.60;;;1.50;;
4290;SDS011;2159;50.906;7.152;2023-01-01T05:01:16;4.13;;;1.73;;
4290;SDS011;2159;50.906;7.152;2023-01-01T05:03:45;2.50;;;1.67;;
4290;SDS011;2159;50.906;7.152;2023-01-01T05:06:13;1.87;;;1.70;;
4290;SDS011;2159;50.906;7.152;2023-01-01T05:08:41;7.77;;;1.73;;
4290;SDS011;2159;50.906;7.152;2023-01-01T05:11:09;1.57;;;1.47;;
4290;SDS011;2159;50.906;7.152;2023-01-01T05:13:40;4.20;;;1.70;;
4290;SDS011;2159;50.906;7.152;2023-01-01T05:16:09;4.83;;;1.70;;
4290;SDS011;2159;50.906;7.152;2023-01-01T05:18:37;2.43;;;1.40;;
4290;SDS011;2159;50.906;7.152;2023-01-01T05:21:05;4.13;;;1.90;;
4290;SDS011;2159;50.906;7.152;2023-01-01T05:23:33;5.53;;;1.50;;
4290;SDS011;2159;50.906;7.152;2023-01-01T05:26:06;4.23;;;1.87;;
4290;SDS011;2159;50.906;7.152;2023-01-01T05:28:34;3.60;;;1.53;;
4290;SDS011;2159;50.906;7.152;2023-01-01T05:31:05;2.00;;;1.57;;
4290;SDS011;2159;50.906;7.152;2023-01-01T05:33:32;1.60;;;1.50;;
4290;SDS011;2159;50.906;7.152;2023-01-01T05:36:00;4.03;;;1.60;;
4290;SDS011;2159;50.906;7.152;2023-01-01T05:38:28;2.13;;;1.93;;
4290;SDS011;2159;50.906;7.152;2023-01-01T05:40:55;7.13;;;1.60;;
4290;SDS011;2159;50.906;7.152;2023-01-01T05:43:23;4.00;;;1.67;;
4290;SDS011;2159;50.906;7.152;2023-01-01T05:45:58;2.20;;;1.70;;
4290;SDS011;2159;50.906;7.152;2023-01-01T05:48:27;1.83;;;1.57;;
4290;SDS011;2159;50.906;7.152;2023-01-01T05:51:00;5.17;;;1.57;;
4290;SDS011;2159;50.906;7.152;2023-01-01T05:53:27;1.60;;;1.50;;
4290;SDS011;2159;50.906;7.152;2023-01-01T05:55:56;2.30;;;1.80;;
4290;SDS011;2159;50.906;7.152;2023-01-01T05:58:23;3.10;;;1.70;;
4290;SDS011;2159;50.906;7.152;2023-01-01T06:00:51;5.00;;;1.73;;
4290;SDS011;2159;50.906;7.152;2023-01-01T06:03:18;1.93;;;1.30;;
4290;SDS011;2159;50.906;7.152;2023-01-01T06:05:47;3.50;;;1.80;;
4290;SDS011;2159;50.906;7.152;2023-01-01T06:08:14;3.83;;;1.90;;
4290;SDS011;2159;50.906;7.152;2023-01-01T06:10:42;3.90;;;1.83;;
4290;SDS011;2159;50.906;7.152;2023-01-01T06:13:09;3.30;;;1.80;;
4290;SDS011;2159;50.906;7.152;2023-01-01T06:15:38;1.87;;;1.67;;
4290;SDS011;2159;50.906;7.152;2023-01-01T06:18:06;3.07;;;1.63;;
4290;SDS011;2159;50.906;7.152;2023-01-01T06:20:33;2.17;;;1.70;;
4290;SDS011;2159;50.906;7.152;2023-01-01T06:23:02;2.50;;;1.77;;
4290;SDS011;2159;50.906;7.152;2023-01-01T06:25:29;3.93;;;1.70;;
4290;SDS011;2159;50.906;7.152;2023-01-01T06:27:57;1.77;;;1.40;;
4290;SDS011;2159;50.906;7.152;2023-01-01T06:30:24;1.90;;;1.60;;
4290;SDS011;2159;50.906;7.152;2023-01-01T06:32:52;4.00;;;2.03;;
4290;SDS011;2159;50.906;7.152;2023-01-01T06:35:19;2.10;;;1.47;;
4290;SDS011;2159;50.906;7.152;2023-01-01T06:37:47;3.33;;;2.00;;
4290;SDS011;2159;50.906;7.152;2023-01-01T06:40:16;2.97;;;1.67;;
4290;SDS011;2159;50.906;7.152;2023-01-01T06:42:43;2.30;;;1.40;;
4290;SDS011;2159;50.906;7.152;2023-01-01T06:45:11;2.20;;;1.70;;
4290;SDS011;2159;50.906;7.152;2023-01-01T06:47:39;2.77;;;1.60;;
4290;SDS011;2159;50.906;7.152;2023-01-01T06:50:06;2.20;;;1.77;;
4290;SDS011;2159;50.906;7.152;2023-01-01T06:52:34;2.87;;;1.70;;
4290;SDS011;2159;50.906;7.152;2023-01-01T06:55:02;2.97;;;1.50;;
4290;SDS011;2159;50.906;7.152;2023-01-01T06:57:30;2.20;;;2.00;;
4290;SDS011;2159;50.906;7.152;2023-01-01T06:59:59;3.10;;;1.70;;
4290;SDS011;2159;50.906;7.152;2023-01-01T07:02:27;1.93;;;1.80;;
4290;SDS011;2159;50.906;7.152;2023-01-01T07:04:54;2.37;;;1.60;;
4290;SDS011;2159;50.906;7.152;2023-01-01T07:07:22;2.07;;;1.77;;
4290;SDS011;2159;50.906;7.152;2023-01-01T07:09:49;5.37;;;2.00;;
4290;SDS011;2159;50.906;7.152;2023-01-01T07:12:17;3.97;;;2.20;;
4290;SDS011;2159;50.906;7.152;2023-01-01T07:14:46;2.23;;;1.50;;
4290;SDS011;2159;50.906;7.152;2023-01-01T07:17:13;4.47;;;1.73;;
4290;SDS011;2159;50.906;7.152;2023-01-01T07:19:41;1.93;;;1.80;;
4290;SDS011;2159;50.906;7.152;2023-01-01T07:22:08;1.93;;;1.60;;
4290;SDS011;2159;50.906;7.152;2023-01-01T07:24:36;1.40;;;1.40;;
4290;SDS011;2159;50.906;7.152;2023-01-01T07:27:04;2.40;;;1.80;;
4290;SDS011;2159;50.906;7.152;2023-01-01T07:29:32;3.90;;;1.80;;
4290;SDS011;2159;50.906;7.152;2023-01-01T07:32:01;4.03;;;2.00;;
4290;SDS011;2159;50.906;7.152;2023-01-01T07:34:29;1.93;;;1.73;;
4290;SDS011;2159;50.906;7.152;2023-01-01T07:36:56;2.30;;;1.80;;
4290;SDS011;2159;50.906;7.152;2023-01-01T07:39:24;1.73;;;1.50;;
4290;SDS011;2159;50.906;7.152;2023-01-01T07:41:52;9.50;;;1.87;;
4290;SDS011;2159;50.906;7.152;2023-01-01T07:44:19;5.73;;;2.00;;
4290;SDS011;2159;50.906;7.152;2023-01-01T07:46:47;1.73;;;1.60;;
4290;SDS011;2159;50.906;7.152;2023-01-01T07:49:16;2.97;;;1.57;;
4290;SDS011;2159;50.906;7.152;2023-01-01T07:51:43;4.87;;;1.90;;
4290;SDS011;2159;50.906;7.152;2023-01-01T07:54:11;2.87;;;1.57;;
4290;SDS011;2159;50.906;7.152;2023-01-01T07:56:38;2.10;;;1.60;;
4290;SDS011;2159;50.906;7.152;2023-01-01T07:59:05;3.50;;;1.90;;
4290;SDS011;2159;50.906;7.152;2023-01-01T08:01:34;2.67;;;1.87;;
4290;SDS011;2159;50.906;7.152;2023-01-01T08:04:02;7.13;;;2.03;;
4290;SDS011;2159;50.906;7.152;2023-01-01T08:06:31;2.97;;;1.80;;
4290;SDS011;2159;50.906;7.152;2023-01-01T08:08:58;2.10;;;1.93;;
4290;SDS011;2159;50.906;7.152;2023-01-01T08:11:26;3.13;;;1.53;;
4290;SDS011;2159;50.906;7.152;2023-01-01T08:13:54;11.50;;;1.87;;
4290;SDS011;2159;50.906;7.152;2023-01-01T08:16:21;6.27;;;2.00;;
4290;SDS011;2159;50.906;7.152;2023-01-01T08:18:49;5.40;;;2.27;;
4290;SDS011;2159;50.906;7.152;2023-01-01T08:21:16;4.03;;;1.70;;
4290;SDS011;2159;50.906;7.152;2023-01-01T08:23:45;5.43;;;1.90;;
4290;SDS011;2159;50.906;7.152;2023-01-01T08:26:13;2.40;;;1.90;;
4290;SDS011;2159;50.906;7.152;2023-01-01T08:28:42;7.67;;;1.87;;
4290;SDS011;2159;50.906;7.152;2023-01-01T08:31:09;2.57;;;1.93;;
4290;SDS011;2159;50.906;7.152;2023-01-01T08:33:36;10.30;;;2.10;;
4290;SDS011;2159;50.906;7.152;2023-01-01T08:36:04;4.73;;;2.23;;
4290;SDS011;2159;50.906;7.152;2023-01-01T08:38:32;3.70;;;1.87;;
4290;SDS011;2159;50.906;7.152;2023-01-01T08:41:00;2.80;;;1.80;;
4290;SDS011;2159;50.906;7.152;2023-01-01T08:43:28;5.47;;;1.87;;
4290;SDS011;2159;50.906;7.152;2023-01-01T08:45:55;4.20;;;1.93;;
4290;SDS011;2159;50.906;7.152;2023-01-01T08:48:23;5.90;;;1.93;;
4290;SDS011;2159;50.906;7.152;2023-01-01T08:50:56;3.13;;;1.80;;
4290;SDS011;2159;50.906;7.152;2023-01-01T08:53:25;4.17;;;1.97;;
4290;SDS011;2159;50.906;7.152;2023-01-01T08:55:56;5.40;;;1.97;;
4290;SDS011;2159;50.906;7.152;2023-01-01T08:58:25;4.60;;;1.97;;
4290;SDS011;2159;50.906;7.152;2023-01-01T09:00:53;7.30;;;1.90;;
4290;SDS011;2159;50.906;7.152;2023-01-01T09:03:21;2.33;;;1.80;;
4290;SDS011;2159;50.906;7.152;2023-01-01T09:05:49;4.73;;;1.90;;
4290;SDS011;2159;50.906;7.152;2023-01-01T09:08:16;5.40;;;2.10;;
4290;SDS011;2159;50.906;7.152;2023-01-01T09:10:44;4.00;;;2.37;;
4290;SDS011;2159;50.906;7.152;2023-01-01T09:13:12;4.37;;;2.47;;
4290;SDS011;2159;50.906;7.152;2023-01-01T09:15:42;3.90;;;3.30;;
4290;SDS011;2159;50.906;7.152;2023-01-01T09:18:10;4.40;;;2.90;;
4290;SDS011;2159;50.906;7.152;2023-01-01T09:20:38;4.90;;;3.23;;
4290;SDS011;2159;50.906;7.152;2023-01-01T09:23:06;5.43;;;2.97;;
4290;SDS011;2159;50.906;7.152;2023-01-01T09:25:34;6.23;;;2.03;;
4290;SDS011;2159;50.906;7.152;2023-01-01T09:28:03;3.37;;;2.03;;
4290;SDS011;2159;50.906;7.152;2023-01-01T09:30:31;5.93;;;2.40;;
4290;SDS011;2159;50.906;7.152;2023-01-01T09:33:00;7.30;;;2.57;;
4290;SDS011;2159;50.906;7.152;2023-01-01T09:35:27;7.33;;;2.87;;
4290;SDS011;2159;50.906;7.152;2023-01-01T09:37:55;5.73;;;2.40;;
4290;SDS011;2159;50.906;7.152;2023-01-01T09:40:25;6.00;;;2.47;;
4290;SDS011;2159;50.906;7.152;2023-01-01T09:42:57;2.50;;;2.30;;
4290;SDS011;2159;50.906;7.152;2023-01-01T09:45:27;6.20;;;2.73;;
4290;SDS011;2159;50.906;7.152;2023-01-01T09:47:58;3.37;;;2.40;;
4290;SDS011;2159;50.906;7.152;2023-01-01T09:50:28;4.53;;;1.97;;
4290;SDS011;2159;50.906;7.152;2023-01-01T09:52:58;2.30;;;2.10;;
4290;SDS011;2159;50.906;7.152;2023-01-01T09:55:27;4.27;;;1.90;;
4290;SDS011;2159;50.906;7.152;2023-01-01T09:57:55;6.77;;;2.60;;
4290;SDS011;2159;50.906;7.152;2023-01-01T10:00:23;2.40;;;1.77;;
4290;SDS011;2159;50.906;7.152;2023-01-01T10:02:58;3.40;;;2.00;;
4290;SDS011;2159;50.906;7.152;2023-01-01T10:05:32;3.83;;;2.00;;
4290;SDS011;2159;50.906;7.152;2023-01-01T10:08:05;4.87;;;2.13;;
4290;SDS011;2159;50.906;7.152;2023-01-01T10:10:37;2.23;;;1.90;;
4290;SDS011;2159;50.906;7.152;2023-01-01T10:13:07;6.93;;;1.80;;
4290;SDS011;2159;50.906;7.152;2023-01-01T10:15:42;3.63;;;1.50;;
4290;SDS011;2159;50.906;7.152;2023-01-01T10:18:13;3.63;;;1.87;;
4290;SDS011;2159;50.906;7.152;2023-01-01T10:20:45;4.30;;;1.77;;
4290;SDS011;2159;50.906;7.152;2023-01-01T10:23:15;5.33;;;1.70;;
4290;SDS011;2159;50.906;7.152;2023-01-01T10:25:43;8.40;;;1.77;;
4290;SDS011;2159;50.906;7.152;2023-01-01T10:28:11;2.73;;;1.87;;
4290;SDS011;2159;50.906;7.152;2023-01-01T10:30:41;5.83;;;2.17;;
4290;SDS011;2159;50.906;7.152;2023-01-01T10:33:09;2.30;;;1.70;;
4290;SDS011;2159;50.906;7.152;2023-01-01T10:35:38;4.07;;;1.53;;
4290;SDS011;2159;50.906;7.152;2023-01-01T10:38:09;5.70;;;1.63;;
4290;SDS011;2159;50.906;7.152;2023-01-01T10:40:41;4.07;;;1.87;;
4290;SDS011;2159;50.906;7.152;2023-01-01T10:43:08;5.07;;;1.97;;
4290;SDS011;2159;50.906;7.152;2023-01-01T10:45:38;3.90;;;1.63;;
4290;SDS011;2159;50.906;7.152;2023-01-01T10:48:08;2.83;;;2.00;;
4290;SDS011;2159;50.906;7.152;2023-01-01T10:50:40;2.37;;;1.77;;
4290;SDS011;2159;50.906;7.152;2023-01-01T10:53:18;1.63;;;1.53;;
4290;SDS011;2159;50.906;7.152;2023-01-01T10:55:47;4.30;;;1.80;;
4290;SDS011;2159;50.906;7.152;2023-01-01T10:58:24;3.50;;;1.60;;
4290;SDS011;2159;50.906;7.152;2023-01-01T11:00:56;4.77;;;1.90;;
4290;SDS011;2159;50.906;7.152;2023-01-01T11:03:24;3.53;;;1.80;;
4290;SDS011;2159;50.906;7.152;2023-01-01T11:06:01;2.63;;;1.50;;
4290;SDS011;2159;50.906;7.152;2023-01-01T11:08:31;2.70;;;1.40;;
4290;SDS011;2159;50.906;7.152;2023-01-01T11:11:00;4.40;;;1.60;;
4290;SDS011;2159;50.906;7.152;2023-01-01T11:13:28;6.97;;;1.53;;
4290;SDS011;2159;50.906;7.152;2023-01-01T11:15:56;6.90;;;1.90;;
4290;SDS011;2159;50.906;7.152;2023-01-01T11:18:24;3.33;;;1.40;;
4290;SDS011;2159;50.906;7.152;2023-01-01T11:20:53;1.60;;;1.30;;
4290;SDS011;2159;50.906;7.152;2023-01-01T11:23:28;3.57;;;1.53;;
4290;SDS011;2159;50.906;7.152;2023-01-01T11:25:59;1.73;;;1.40;;
4290;SDS011;2159;50.906;7.152;2023-01-01T11:28:27;3.13;;;1.40;;
4290;SDS011;2159;50.906;7.152;2023-01-01T11:30:57;1.70;;;1.20;;
4290;SDS011;2159;50.906;7.152;2023-01-01T11:33:26;4.73;;;2.00;;
4290;SDS011;2159;50.906;7.152;2023-01-01T11:35:54;3.10;;;1.43;;
4290;SDS011;2159;50.906;7.152;2023-01-01T11:38:22;1.80;;;1.40;;
4290;SDS011;2159;50.906;7.152;2023-01-01T11:40:55;3.70;;;1.30;;
4290;SDS011;2159;50.906;7.152;2023-01-01T11:43:28;5.73;;;1.80;;
4290;SDS011;2159;50.906;7.152;2023-01-01T11:45:57;9.70;;;1.67;;
4290;SDS011;2159;50.906;7.152;2023-01-01T11:48:26;3.30;;;1.30;;
4290;SDS011;2159;50.906;7.152;2023-01-01T11:50:55;2.40;;;1.50;;
4290;SDS011;2159;50.906;7.152;2023-01-01T11:53:27;5.07;;;1.73;;
4290;SDS011;2159;50.906;7.152;2023-01-01T11:55:59;1.87;;;1.40;;
4290;SDS011;2159;50.906;7.152;2023-01-01T11:58:30;4.60;;;1.63;;
4290;SDS011;2159;50.906;7.152;2023-01-01T12:00:59;4.17;;;1.50;;
4290;SDS011;2159;50.906;7.152;2023-01-01T12:03:29;5.23;;;1.50;;
4290;SDS011;2159;50.906;7.152;2023-01-01T12:06:00;4.97;;;1.70;;
4290;SDS011;2159;50.906;7.152;2023-01-01T12:08:32;4.50;;;1.77;;
4290;SDS011;2159;50.906;7.152;2023-01-01T12:11:02;2.83;;;1.10;;
4290;SDS011;2159;50.906;7.152;2023-01-01T12:13:34;3.57;;;1.60;;
4290;SDS011;2159;50.906;7.152;2023-01-01T12:16:06;4.70;;;1.80;;
4290;SDS011;2159;50.906;7.152;2023-01-01T12:18:36;3.83;;;1.50;;
4290;SDS011;2159;50.906;7.152;2023-01-01T12:21:09;2.83;;;1.47;;
4290;SDS011;2159;50.906;7.152;2023-01-01T12:23:38;2.13;;;1.60;;
4290;SDS011;2159;50.906;7.152;2023-01-01T12:26:09;6.03;;;1.77;;
4290;SDS011;2159;50.906;7.152;2023-01-01T12:28:39;5.23;;;1.47;;
4290;SDS011;2159;50.906;7.152;2023-01-01T12:31:11;4.53;;;1.50;;
4290;SDS011;2159;50.906;7.152;2023-01-01T12:33:51;5.00;;;1.53;;
4290;SDS011;2159;50.906;7.152;2023-01-01T12:36:24;5.20;;;1.50;;
4290;SDS011;2159;50.906;7.152;2023-01-01T12:41:45;5.43;;;1.60;;
4290;SDS011;2159;50.906;7.152;2023-01-01T12:44:17;5.23;;;1.30;;
4290;SDS011;2159;50.906;7.152;2023-01-01T12:46:49;1.67;;;1.57;;
4290;SDS011;2159;50.906;7.152;2023-01-01T12:52:16;4.60;;;1.50;;
4290;SDS011;2159;50.906;7.152;2023-01-01T12:55:04;2.83;;;1.33;;
4290;SDS011;2159;50.906;7.152;2023-01-01T12:57:39;3.90;;;1.40;;
4290;SDS011;2159;50.906;7.152;2023-01-01T13:00:12;1.87;;;1.27;;
4290;SDS011;2159;50.906;7.152;2023-01-01T13:02:40;4.57;;;1.27;;
4290;SDS011;2159;50.906;7.152;2023-01-01T13:05:14;4.60;;;1.60;;
4290;SDS011;2159;50.906;7.152;2023-01-01T13:07:44;3.03;;;1.30;;
4290;SDS011;2159;50.906;7.152;2023-01-01T13:10:17;2.70;;;1.37;;
4290;SDS011;2159;50.906;7.152;2023-01-01T13:12:45;1.90;;;1.53;;
4290;SDS011;2159;50.906;7.152;2023-01-01T13:18:00;3.63;;;1.50;;
4290;SDS011;2159;50.906;7.152;2023-01-01T13:20:29;2.83;;;1.77;;
4290;SDS011;2159;50.906;7.152;2023-01-01T13:22:56;2.90;;;1.93;;
4290;SDS011;2159;50.906;7.152;2023-01-01T13:25:24;10.70;;;5.93;;
4290;SDS011;2159;50.906;7.152;2023-01-01T13:28:02;7.67;;;3.30;;
4290;SDS011;2159;50.906;7.152;2023-01-01T13:30:46;2.97;;;2.20;;
4290;SDS011;2159;50.906;7.152;2023-01-01T13:33:16;11.50;;;8.10;;
4290;SDS011;2159;50.906;7.152;2023-01-01T13:38:44;13.40;;;9.13;;
4290;SDS011;2159;50.906;7.152;2023-01-01T13:44:15;5.60;;;3.60;;
4290;SDS011;2159;50.906;7.152;2023-01-01T13:46:49;3.43;;;1.80;;
4290;SDS011;2159;50.906;7.152;2023-01-01T13:49:23;3.63;;;1.60;;
4290;SDS011;2159;50.906;7.152;2023-01-01T13:51:56;3.17;;;1.50;;
4290;SDS011;2159;50.906;7.152;2023-01-01T13:57:26;5.00;;;1.40;;
4290;SDS011;2159;50.906;7.152;2023-01-01T14:00:20;3.97;;;1.73;;
4290;SDS011;2159;50.906;7.152;2023-01-01T14:02:48;3.20;;;1.50;;
4290;SDS011;2159;50.906;7.152;2023-01-01T14:05:21;1.67;;;1.30;;
4290;SDS011;2159;50.906;7.152;2023-01-01T14:07:51;1.93;;;1.60;;
4290;SDS011;2159;50.906;7.152;2023-01-01T14:10:26;4.10;;;2.30;;
4290;SDS011;2159;50.906;7.152;2023-01-01T14:12:55;5.13;;;2.17;;
4290;SDS011;2159;50.906;7.152;2023-01-01T14:15:24;5.33;;;2.20;;
4290;SDS011;2159;50.906;7.152;2023-01-01T14:17:52;4.83;;;2.47;;
4290;SDS011;2159;50.906;7.152;2023-01-01T14:20:23;3.60;;;2.53;;
4290;SDS011;2159;50.906;7.152;2023-01-01T14:22:52;3.83;;;1.90;;
4290;SDS011;2159;50.906;7.152;2023-01-01T14:25:23;3.57;;;1.80;;
4290;SDS011;2159;50.906;7.152;2023-01-01T14:27:52;6.30;;;1.60;;
4290;SDS011;2159;50.906;7.152;2023-01-01T14:30:21;2.90;;;1.57;;
4290;SDS011;2159;50.906;7.152;2023-01-01T14:32:55;3.07;;;1.80;;
4290;SDS011;2159;50.906;7.152;2023-01-01T14:35:25;3.00;;;1.70;;
4290;SDS011;2159;50.906;7.152;2023-01-01T14:37:53;1.83;;;1.60;;
4290;SDS011;2159;50.906;7.152;2023-01-01T14:40:21;3.73;;;1.80;;
4290;SDS011;2159;50.906;7.152;2023-01-01T14:42:54;1.90;;;1.70;;
4290;SDS011;2159;50.906;7.152;2023-01-01T14:45:23;4.00;;;1.70;;
4290;SDS011;2159;50.906;7.152;2023-01-01T14:47:52;4.57;;;2.83;;
4290;SDS011;2159;50.906;7.152;2023-01-01T14:50:23;3.03;;;1.77;;
4290;SDS011;2159;50.906;7.152;2023-01-01T14:52:54;6.93;;;1.60;;
4290;SDS011;2159;50.906;7.152;2023-01-01T14:55:23;2.30;;;1.60;;
4290;SDS011;2159;50.906;7.152;2023-01-01T14:57:54;4.07;;;1.70;;
4290;SDS011;2159;50.906;7.152;2023-01-01T15:00:24;3.87;;;1.60;;
4290;SDS011;2159;50.906;7.152;2023-01-01T15:02:52;2.23;;;1.83;;
4290;SDS011;2159;50.906;7.152;2023-01-01T15:05:28;5.70;;;2.00;;
4290;SDS011;2159;50.906;7.152;2023-01-01T15:08:02;6.13;;;2.00;;
4290;SDS011;2159;50.906;7.152;2023-01-01T15:10:31;3.53;;;2.00;;
4290;SDS011;2159;50.906;7.152;2023-01-01T15:12:59;2.40;;;2.20;;
4290;SDS011;2159;50.906;7.152;2023-01-01T15:15:33;6.50;;;3.20;;
4290;SDS011;2159;50.906;7.152;2023-01-01T15:18:01;8.30;;;2.80;;
4290;SDS011;2159;50.906;7.152;2023-01-01T15:20:29;5.77;;;3.03;;
4290;SDS011;2159;50.906;7.152;2023-01-01T15:22:56;4.87;;;2.60;;
4290;SDS011;2159;50.906;7.152;2023-01-01T15:25:34;6.00;;;2.90;;
4290;SDS011;2159;50.906;7.152;2023-01-01T15:28:03;4.73;;;3.10;;
4290;SDS011;2159;50.906;7.152;2023-01-01T15:30:32;2.83;;;2.50;;
4290;SDS011;2159;50.906;7.152;2023-01-01T15:33:06;6.60;;;3.10;;
4290;SDS011;2159;50.906;7.152;2023-01-01T15:35:34;5.70;;;2.80;;
4290;SDS011;2159;50.906;7.152;2023-01-01T15:38:07;4.27;;;2.80;;
4290;SDS011;2159;50.906;7.152;2023-01-01T15:40:38;4.03;;;3.40;;
4290;SDS011;2159;50.906;7.152;2023-01-01T15:43:11;8.20;;;4.83;;
4290;SDS011;2159;50.906;7.152;2023-01-01T15:45:39;7.50;;;4.40;;
4290;SDS011;2159;50.906;7.152;2023-01-01T15:48:16;6.37;;;4.10;;